sensor_id;sensor_type;location;lat;lon;timestamp;P1;P2;P0
57037;PMS5003;59942;49.304;8.256;2023-01-10T00:01:29;36.40;36.40;33.20
57037;PMS5003;59942;49.304;8.256;2023-01-10T00:03:57;38.00;38.00;34.00
57037;PMS5003;59942;49.304;8.256;2023-01-10T00:06:25;39.00;39.00;34.00
57037;PMS5003;59942;49.304;8.256;2023-01-10T00:08:52;43.60;41.20;35.80
57037;PMS5003;59942;49.304;8.256;2023-01-10T00:11:19;34.40;34.40;33.00
57037;PMS5003;59942;49.304;8.256;2023-01-10T00:14:05;44.80;44.20;38.20
57037;PMS5003;59942;49.304;8.256;2023-01-10T00:16:32;38.00;38.00;34.40
57037;PMS5003;59942;49.304;8.256;2023-01-10T00:18:59;43.60;43.40;37.40
57037;PMS5003;59942;49.304;8.256;2023-01-10T00:21:26;36.20;36.20;33.20
57037;PMS5003;59942;49.304;8.256;2023-01-10T00:23:54;38.80;38.80;34.40
57037;PMS5003;59942;49.304;8.256;2023-01-10T00:26:23;36.00;36.00;33.00
57037;PMS5003;59942;49.304;8.256;2023-01-10T00:28:51;42.60;42.40;36.80
57037;PMS5003;59942;49.304;8.256;2023-01-10T00:31:18;38.80;38.80;34.60
57037;PMS5003;59942;49.304;8.256;2023-01-10T00:33:45;41.20;41.20;36.00
57037;PMS5003;59942;49.304;8.256;2023-01-10T00:36:15;39.00;39.00;34.00
57037;PMS5003;59942;49.304;8.256;2023-01-10T00:38:42;36.00;36.00;33.00
57037;PMS5003;59942;49.304;8.256;2023-01-10T00:41:09;36.00;36.00;33.00
57037;PMS5003;59942;49.304;8.256;2023-01-10T00:43:56;42.00;42.00;36.80
57037;PMS5003;59942;49.304;8.256;2023-01-10T00:46:23;36.00;36.00;33.00
57037;PMS5003;59942;49.304;8.256;2023-01-10T00:48:51;32.40;32.40;31.00
57037;PMS5003;59942;49.304;8.256;2023-01-10T00:51:19;36.00;36.00;33.00
57037;PMS5003;59942;49.304;8.256;2023-01-10T00:53:46;38.40;38.40;34.40
57037;PMS5003;59942;49.304;8.256;2023-01-10T00:56:13;45.40;44.80;38.80
57037;PMS5003;59942;49.304;8.256;2023-01-10T00:58:40;36.00;36.00;33.00
57037;PMS5003;59942;49.304;8.256;2023-01-10T01:01:08;36.00;36.00;33.00
57037;PMS5003;59942;49.304;8.256;2023-01-10T01:03:35;36.20;35.40;33.20
57037;PMS5003;59942;49.304;8.256;2023-01-10T01:06:05;34.80;34.80;33.00
57037;PMS5003;59942;49.304;8.256;2023-01-10T01:08:33;46.00;44.20;38.20
57037;PMS5003;59942;49.304;8.256;2023-01-10T01:11:00;36.00;36.00;33.00
57037;PMS5003;59942;49.304;8.256;2023-01-10T01:13:28;34.00;34.00;33.00
57037;PMS5003;59942;49.304;8.256;2023-01-10T01:15:58;37.40;37.40;34.00
57037;PMS5003;59942;49.304;8.256;2023-01-10T01:18:26;37.80;37.80;34.00
57037;PMS5003;59942;49.304;8.256;2023-01-10T01:20:54;36.40;36.40;33.40
57037;PMS5003;59942;49.304;8.256;2023-01-10T01:23:23;43.20;43.00;37.40
57037;PMS5003;59942;49.304;8.256;2023-01-10T01:25:54;36.40;36.40;33.40
57037;PMS5003;59942;49.304;8.256;2023-01-10T01:28:22;37.40;37.40;34.00
57037;PMS5003;59942;49.304;8.256;2023-01-10T01:30:50;36.00;36.00;33.00
57037;PMS5003;59942;49.304;8.256;2023-01-10T01:33:17;34.00;34.00;33.00
57037;PMS5003;59942;49.304;8.256;2023-01-10T01:35:46;39.40;39.40;34.80
57037;PMS5003;59942;49.304;8.256;2023-01-10T01:38:15;34.80;34.80;33.00
57037;PMS5003;59942;49.304;8.256;2023-01-10T01:40:43;38.00;38.00;34.40
57037;PMS5003;59942;49.304;8.256;2023-01-10T01:43:18;36.00;36.00;33.00
57037;PMS5003;59942;49.304;8.256;2023-01-10T01:45:49;38.00;38.00;34.40
57037;PMS5003;59942;49.304;8.256;2023-01-10T01:51:15;34.40;34.40;33.00
57037;PMS5003;59942;49.304;8.256;2023-01-10T01:53:53;40.60;40.60;35.40
57037;PMS5003;59942;49.304;8.256;2023-01-10T01:56:33;37.60;35.80;33.00
57037;PMS5003;59942;49.304;8.256;2023-01-10T01:59:10;46.80;45.80;39.40
57037;PMS5003;59942;49.304;8.256;2023-01-10T02:01:40;34.00;34.00;32.60
57037;PMS5003;59942;49.304;8.256;2023-01-10T02:04:16;40.00;38.00;34.40
57037;PMS5003;59942;49.304;8.256;2023-01-10T02:06:47;37.20;36.00;33.00
57037;PMS5003;59942;49.304;8.256;2023-01-10T02:11:50;34.60;34.00;33.00
57037;PMS5003;59942;49.304;8.256;2023-01-10T02:14:18;41.80;41.80;35.80
57037;PMS5003;59942;49.304;8.256;2023-01-10T02:16:46;36.80;36.80;33.80
57037;PMS5003;59942;49.304;8.256;2023-01-10T02:28:04;36.60;36.60;33.20
57037;PMS5003;59942;49.304;8.256;2023-01-10T02:39:31;38.80;38.80;34.60
57037;PMS5003;59942;49.304;8.256;2023-01-10T02:42:12;36.00;36.00;33.00
57037;PMS5003;59942;49.304;8.256;2023-01-10T02:44:53;42.60;42.60;37.00
57037;PMS5003;59942;49.304;8.256;2023-01-10T02:47:36;37.00;37.00;34.00
57037;PMS5003;59942;49.304;8.256;2023-01-10T02:50:22;39.40;39.40;34.80
57037;PMS5003;59942;49.304;8.256;2023-01-10T03:01:09;34.00;34.00;33.00
57037;PMS5003;59942;49.304;8.256;2023-01-10T03:04:08;45.40;44.80;38.80
57037;PMS5003;59942;49.304;8.256;2023-01-10T03:07:16;38.80;38.80;34.60
57037;PMS5003;59942;49.304;8.256;2023-01-10T03:10:10;33.80;33.80;32.20
57037;PMS5003;59942;49.304;8.256;2023-01-10T03:15:28;37.00;37.00;34.00
57037;PMS5003;59942;49.304;8.256;2023-01-10T03:18:00;34.80;34.80;33.00
57037;PMS5003;59942;49.304;8.256;2023-01-10T03:20:31;44.20;43.00;37.40
57037;PMS5003;59942;49.304;8.256;2023-01-10T03:23:04;34.80;34.80;33.00
57037;PMS5003;59942;49.304;8.256;2023-01-10T03:25:33;36.20;36.20;33.00
57037;PMS5003;59942;49.304;8.256;2023-01-10T03:28:07;37.00;36.00;33.00
57037;PMS5003;59942;49.304;8.256;2023-01-10T03:30:43;33.00;33.00;31.00
57037;PMS5003;59942;49.304;8.256;2023-01-10T03:33:15;38.40;38.40;34.20
57037;PMS5003;59942;49.304;8.256;2023-01-10T03:35:58;36.00;36.00;33.00
57037;PMS5003;59942;49.304;8.256;2023-01-10T03:38:44;43.20;40.60;35.20
57037;PMS5003;59942;49.304;8.256;2023-01-10T03:41:33;40.60;40.60;35.60
57037;PMS5003;59942;49.304;8.256;2023-01-10T03:47:08;41.40;41.40;36.20
57037;PMS5003;59942;49.304;8.256;2023-01-10T03:49:54;35.20;35.20;33.00
57037;PMS5003;59942;49.304;8.256;2023-01-10T03:52:26;46.80;45.80;39.40
57037;PMS5003;59942;49.304;8.256;2023-01-10T03:54:53;35.60;35.60;33.00
57037;PMS5003;59942;49.304;8.256;2023-01-10T03:57:21;38.40;38.40;34.40
57037;PMS5003;59942;49.304;8.256;2023-01-10T03:59:51;45.00;44.40;38.40
57037;PMS5003;59942;49.304;8.256;2023-01-10T04:02:20;33.60;33.60;32.20
57037;PMS5003;59942;49.304;8.256;2023-01-10T04:04:47;41.80;41.80;36.20
57037;PMS5003;59942;49.304;8.256;2023-01-10T04:07:14;37.00;34.40;33.00
57037;PMS5003;59942;49.304;8.256;2023-01-10T04:09:41;34.40;34.40;33.00
57037;PMS5003;59942;49.304;8.256;2023-01-10T04:12:08;46.80;45.80;39.40
57037;PMS5003;59942;49.304;8.256;2023-01-10T04:14:35;35.80;35.80;33.00
57037;PMS5003;59942;49.304;8.256;2023-01-10T04:17:03;36.40;36.40;33.40
57037;PMS5003;59942;49.304;8.256;2023-01-10T04:19:30;33.40;33.40;31.80
57037;PMS5003;59942;49.304;8.256;2023-01-10T04:21:57;36.00;36.00;33.00
57037;PMS5003;59942;49.304;8.256;2023-01-10T04:24:24;41.40;41.40;36.40
57037;PMS5003;59942;49.304;8.256;2023-01-10T04:26:51;44.80;43.40;37.40
57037;PMS5003;59942;49.304;8.256;2023-01-10T04:29:18;39.60;37.80;34.20
57037;PMS5003;59942;49.304;8.256;2023-01-10T04:31:45;37.00;37.00;34.00
57037;PMS5003;59942;49.304;8.256;2023-01-10T04:34:13;32.60;32.60;31.40
57037;PMS5003;59942;49.304;8.256;2023-01-10T04:36:40;48.40;45.00;39.00
57037;PMS5003;59942;49.304;8.256;2023-01-10T04:39:08;49.60;47.60;40.80
57037;PMS5003;59942;49.304;8.256;2023-01-10T04:41:35;42.20;38.80;34.60
57037;PMS5003;59942;49.304;8.256;2023-01-10T04:44:02;37.80;37.80;34.20
57037;PMS5003;59942;49.304;8.256;2023-01-10T04:46:33;34.60;34.60;32.40
57037;PMS5003;59942;49.304;8.256;2023-01-10T04:49:01;37.40;37.40;33.80
57037;PMS5003;59942;49.304;8.256;2023-01-10T04:51:28;37.00;37.00;34.00
57037;PMS5003;59942;49.304;8.256;2023-01-10T04:53:55;36.00;36.00;33.00
57037;PMS5003;59942;49.304;8.256;2023-01-10T04:56:22;36.00;36.00;33.40
57037;PMS5003;59942;49.304;8.256;2023-01-10T04:58:52;37.00;37.00;34.00
57037;PMS5003;59942;49.304;8.256;2023-01-10T05:01:21;36.60;36.60;33.60
57037;PMS5003;59942;49.304;8.256;2023-01-10T05:03:51;34.00;34.00;33.00
57037;PMS5003;59942;49.304;8.256;2023-01-10T05:06:21;38.60;37.80;34.00
57037;PMS5003;59942;49.304;8.256;2023-01-10T05:08:49;43.20;43.00;37.40
57037;PMS5003;59942;49.304;8.256;2023-01-10T05:11:17;37.00;37.00;34.00
57037;PMS5003;59942;49.304;8.256;2023-01-10T05:13:44;47.20;46.00;39.60
57037;PMS5003;59942;49.304;8.256;2023-01-10T05:16:13;48.40;46.60;40.20
57037;PMS5003;59942;49.304;8.256;2023-01-10T05:18:41;40.80;37.00;33.60
57037;PMS5003;59942;49.304;8.256;2023-01-10T05:21:11;37.00;36.40;33.40
57037;PMS5003;59942;49.304;8.256;2023-01-10T05:23:39;57.00;51.00;43.00
57037;PMS5003;59942;49.304;8.256;2023-01-10T05:26:08;34.00;31.80;30.40
57037;PMS5003;59942;49.304;8.256;2023-01-10T05:28:40;37.20;37.20;33.80
57037;PMS5003;59942;49.304;8.256;2023-01-10T05:31:08;39.20;37.00;34.00
57037;PMS5003;59942;49.304;8.256;2023-01-10T05:33:38;43.20;40.60;35.60
57037;PMS5003;59942;49.304;8.256;2023-01-10T05:36:09;55.00;51.00;43.00
57037;PMS5003;59942;49.304;8.256;2023-01-10T05:38:36;37.00;35.40;33.20
57037;PMS5003;59942;49.304;8.256;2023-01-10T05:41:07;35.60;35.60;33.40
57037;PMS5003;59942;49.304;8.256;2023-01-10T05:43:34;34.40;34.40;33.00
57037;PMS5003;59942;49.304;8.256;2023-01-10T05:46:01;32.60;32.00;30.80
57037;PMS5003;59942;49.304;8.256;2023-01-10T05:48:29;36.00;36.00;33.00
57037;PMS5003;59942;49.304;8.256;2023-01-10T05:50:56;41.80;41.80;36.40
57037;PMS5003;59942;49.304;8.256;2023-01-10T05:53:23;42.60;42.60;37.00
57037;PMS5003;59942;49.304;8.256;2023-01-10T05:55:53;49.80;45.40;39.40
57037;PMS5003;59942;49.304;8.256;2023-01-10T05:58:24;33.00;32.60;30.80
57037;PMS5003;59942;49.304;8.256;2023-01-10T06:00:53;41.60;36.40;33.20
57037;PMS5003;59942;49.304;8.256;2023-01-10T06:03:21;35.80;35.80;33.20
57037;PMS5003;59942;49.304;8.256;2023-01-10T06:05:50;34.00;34.00;33.00
57037;PMS5003;59942;49.304;8.256;2023-01-10T06:08:18;34.00;34.00;33.00
57037;PMS5003;59942;49.304;8.256;2023-01-10T06:10:45;48.20;45.80;39.40
57037;PMS5003;59942;49.304;8.256;2023-01-10T06:13:12;47.40;46.40;39.60
57037;PMS5003;59942;49.304;8.256;2023-01-10T06:15:40;34.00;34.00;33.00
57037;PMS5003;59942;49.304;8.256;2023-01-10T06:18:07;36.00;36.00;33.00
57037;PMS5003;59942;49.304;8.256;2023-01-10T06:20:37;41.80;39.60;34.40
57037;PMS5003;59942;49.304;8.256;2023-01-10T06:23:05;48.00;46.60;39.80
57037;PMS5003;59942;49.304;8.256;2023-01-10T06:25:33;40.00;40.00;35.20
57037;PMS5003;59942;49.304;8.256;2023-01-10T06:28:03;44.20;42.60;37.00
57037;PMS5003;59942;49.304;8.256;2023-01-10T06:30:30;37.20;37.20;34.00
57037;PMS5003;59942;49.304;8.256;2023-01-10T06:33:01;36.20;36.20;33.00
57037;PMS5003;59942;49.304;8.256;2023-01-10T06:35:29;45.80;42.00;36.00
57037;PMS5003;59942;49.304;8.256;2023-01-10T06:37:57;39.40;37.80;33.60
57037;PMS5003;59942;49.304;8.256;2023-01-10T06:40:24;41.00;37.80;34.20
57037;PMS5003;59942;49.304;8.256;2023-01-10T06:42:53;33.60;33.60;32.00
57037;PMS5003;59942;49.304;8.256;2023-01-10T06:45:20;36.40;34.40;33.00
57037;PMS5003;59942;49.304;8.256;2023-01-10T06:47:47;43.40;43.40;37.00
57037;PMS5003;59942;49.304;8.256;2023-01-10T06:50:14;34.80;34.80;33.00
57037;PMS5003;59942;49.304;8.256;2023-01-10T06:52:41;41.60;37.80;33.80
57037;PMS5003;59942;49.304;8.256;2023-01-10T06:55:09;31.00;31.00;30.20
57037;PMS5003;59942;49.304;8.256;2023-01-10T06:57:36;35.60;35.60;33.00
57037;PMS5003;59942;49.304;8.256;2023-01-10T07:00:05;36.00;36.00;33.00
57037;PMS5003;59942;49.304;8.256;2023-01-10T07:02:35;39.00;36.40;33.20
57037;PMS5003;59942;49.304;8.256;2023-01-10T07:05:02;49.00;45.80;39.40
57037;PMS5003;59942;49.304;8.256;2023-01-10T07:07:30;37.00;37.00;33.60
57037;PMS5003;59942;49.304;8.256;2023-01-10T07:09:57;41.80;37.60;33.60
57037;PMS5003;59942;49.304;8.256;2023-01-10T07:12:25;36.60;36.60;33.60
57037;PMS5003;59942;49.304;8.256;2023-01-10T07:14:52;36.60;36.60;33.40
57037;PMS5003;59942;49.304;8.256;2023-01-10T07:17:19;36.00;36.00;33.00
57037;PMS5003;59942;49.304;8.256;2023-01-10T07:19:47;37.00;37.00;33.80
57037;PMS5003;59942;49.304;8.256;2023-01-10T07:22:14;41.60;37.40;34.00
57037;PMS5003;59942;49.304;8.256;2023-01-10T07:24:42;38.00;38.00;34.00
57037;PMS5003;59942;49.304;8.256;2023-01-10T07:27:09;34.00;34.00;33.00
57037;PMS5003;59942;49.304;8.256;2023-01-10T07:29:36;46.20;43.00;36.80
57037;PMS5003;59942;49.304;8.256;2023-01-10T07:32:03;37.80;35.40;33.20
57037;PMS5003;59942;49.304;8.256;2023-01-10T07:34:31;33.80;33.80;32.60
57037;PMS5003;59942;49.304;8.256;2023-01-10T07:36:59;35.00;34.80;33.00
57037;PMS5003;59942;49.304;8.256;2023-01-10T07:39:28;39.80;37.00;34.00
57037;PMS5003;59942;49.304;8.256;2023-01-10T07:41:55;48.00;46.60;39.80
57037;PMS5003;59942;49.304;8.256;2023-01-10T07:44:22;33.40;32.00;30.80
57037;PMS5003;59942;49.304;8.256;2023-01-10T07:46:49;35.20;35.20;33.00
57037;PMS5003;59942;49.304;8.256;2023-01-10T07:49:16;46.60;44.60;37.20
57037;PMS5003;59942;49.304;8.256;2023-01-10T07:51:44;40.80;40.80;35.80
57037;PMS5003;59942;49.304;8.256;2023-01-10T07:54:10;35.20;35.20;32.80
57037;PMS5003;59942;49.304;8.256;2023-01-10T07:56:40;36.80;34.80;32.80
57037;PMS5003;59942;49.304;8.256;2023-01-10T07:59:07;37.00;37.00;33.60
57037;PMS5003;59942;49.304;8.256;2023-01-10T08:01:34;48.20;45.00;39.00
57037;PMS5003;59942;49.304;8.256;2023-01-10T08:04:01;40.20;39.00;34.00
57037;PMS5003;59942;49.304;8.256;2023-01-10T08:06:28;35.80;35.80;32.40
57037;PMS5003;59942;49.304;8.256;2023-01-10T08:08:56;36.60;34.20;32.20
57037;PMS5003;59942;49.304;8.256;2023-01-10T08:11:23;34.80;34.80;33.00
57037;PMS5003;59942;49.304;8.256;2023-01-10T08:13:51;42.40;40.00;34.80
57037;PMS5003;59942;49.304;8.256;2023-01-10T08:16:18;55.40;49.40;42.00
57037;PMS5003;59942;49.304;8.256;2023-01-10T08:18:47;34.80;33.20;31.40
57037;PMS5003;59942;49.304;8.256;2023-01-10T08:21:14;37.00;35.20;33.00
57037;PMS5003;59942;49.304;8.256;2023-01-10T08:23:41;34.00;34.00;33.00
57037;PMS5003;59942;49.304;8.256;2023-01-10T08:26:10;34.00;34.00;33.00
57037;PMS5003;59942;49.304;8.256;2023-01-10T08:28:37;34.80;34.80;33.00
57037;PMS5003;59942;49.304;8.256;2023-01-10T08:31:05;40.40;37.00;34.00
57037;PMS5003;59942;49.304;8.256;2023-01-10T08:33:33;39.00;36.00;33.00
57037;PMS5003;59942;49.304;8.256;2023-01-10T08:36:03;34.40;34.40;33.00
57037;PMS5003;59942;49.304;8.256;2023-01-10T08:38:30;44.80;41.00;35.60
57037;PMS5003;59942;49.304;8.256;2023-01-10T08:40:58;37.00;37.00;34.00
57037;PMS5003;59942;49.304;8.256;2023-01-10T08:43:25;39.00;39.00;34.80
57037;PMS5003;59942;49.304;8.256;2023-01-10T08:45:53;41.20;39.60;35.20
57037;PMS5003;59942;49.304;8.256;2023-01-10T08:48:20;41.40;41.40;36.20
57037;PMS5003;59942;49.304;8.256;2023-01-10T08:50:48;51.80;48.60;41.60
57037;PMS5003;59942;49.304;8.256;2023-01-10T08:53:15;37.80;37.80;34.20
57037;PMS5003;59942;49.304;8.256;2023-01-10T08:55:42;37.00;37.00;33.60
57037;PMS5003;59942;49.304;8.256;2023-01-10T08:58:09;43.00;41.80;36.40
57037;PMS5003;59942;49.304;8.256;2023-01-10T09:00:36;44.40;44.00;37.40
57037;PMS5003;59942;49.304;8.256;2023-01-10T09:03:06;36.00;34.00;33.00
57037;PMS5003;59942;49.304;8.256;2023-01-10T09:05:34;46.20;45.40;39.00
57037;PMS5003;59942;49.304;8.256;2023-01-10T09:08:01;33.80;33.80;32.60
57037;PMS5003;59942;49.304;8.256;2023-01-10T09:10:28;43.40;43.40;37.00
57037;PMS5003;59942;49.304;8.256;2023-01-10T09:12:56;35.00;32.60;31.00
57037;PMS5003;59942;49.304;8.256;2023-01-10T09:15:36;44.20;44.20;38.20
57037;PMS5003;59942;49.304;8.256;2023-01-10T09:18:06;36.00;36.00;33.00
57037;PMS5003;59942;49.304;8.256;2023-01-10T09:20:34;40.80;39.40;34.80
57037;PMS5003;59942;49.304;8.256;2023-01-10T09:23:06;42.20;37.00;33.60
57037;PMS5003;59942;49.304;8.256;2023-01-10T09:25:34;37.40;35.20;33.00
57037;PMS5003;59942;49.304;8.256;2023-01-10T09:28:02;38.40;38.40;34.40
57037;PMS5003;59942;49.304;8.256;2023-01-10T09:30:30;42.00;39.00;34.00
57037;PMS5003;59942;49.304;8.256;2023-01-10T09:32:58;43.60;40.80;35.20
57037;PMS5003;59942;49.304;8.256;2023-01-10T09:35:25;41.80;39.80;34.00
57037;PMS5003;59942;49.304;8.256;2023-01-10T09:37:54;40.00;38.20;34.00
57037;PMS5003;59942;49.304;8.256;2023-01-10T09:40:29;39.40;39.20;34.40
57037;PMS5003;59942;49.304;8.256;2023-01-10T09:46:09;35.20;35.20;33.00
57037;PMS5003;59942;49.304;8.256;2023-01-10T09:51:39;33.80;33.80;31.80
57037;PMS5003;59942;49.304;8.256;2023-01-10T09:56:57;36.00;36.00;33.40
57037;PMS5003;59942;49.304;8.256;2023-01-10T09:59:29;46.00;43.60;37.60
57037;PMS5003;59942;49.304;8.256;2023-01-10T10:02:40;39.00;39.00;34.00
57037;PMS5003;59942;49.304;8.256;2023-01-10T10:07:50;47.80;46.40;40.00
57037;PMS5003;59942;49.304;8.256;2023-01-10T10:10:26;40.00;40.00;36.00
57037;PMS5003;59942;49.304;8.256;2023-01-10T10:13:06;43.60;43.60;37.60
57037;PMS5003;59942;49.304;8.256;2023-01-10T10:18:48;44.80;44.20;38.20
57037;PMS5003;59942;49.304;8.256;2023-01-10T10:22:00;38.40;38.40;34.60
57037;PMS5003;59942;49.304;8.256;2023-01-10T10:27:22;39.80;39.80;34.80
57037;PMS5003;59942;49.304;8.256;2023-01-10T10:35:40;60.00;54.00;45.00
57037;PMS5003;59942;49.304;8.256;2023-01-10T10:38:11;36.00;35.60;33.00
57037;PMS5003;59942;49.304;8.256;2023-01-10T10:41:01;40.40;38.20;34.00
57037;PMS5003;59942;49.304;8.256;2023-01-10T10:43:32;40.80;39.00;34.20
57037;PMS5003;59942;49.304;8.256;2023-01-10T10:46:21;39.80;38.60;34.00
57037;PMS5003;59942;49.304;8.256;2023-01-10T10:49:13;39.60;39.60;35.20
57037;PMS5003;59942;49.304;8.256;2023-01-10T10:51:46;37.60;36.60;33.60
57037;PMS5003;59942;49.304;8.256;2023-01-10T10:54:18;41.60;41.20;35.80
57037;PMS5003;59942;49.304;8.256;2023-01-10T10:56:45;41.00;38.60;34.00
57037;PMS5003;59942;49.304;8.256;2023-01-10T10:59:16;38.20;38.20;34.00
57037;PMS5003;59942;49.304;8.256;2023-01-10T11:01:48;36.20;34.80;33.00
57037;PMS5003;59942;49.304;8.256;2023-01-10T11:04:18;44.80;44.20;38.20
57037;PMS5003;59942;49.304;8.256;2023-01-10T11:06:48;47.40;45.40;39.00
57037;PMS5003;59942;49.304;8.256;2023-01-10T11:09:16;38.20;37.00;33.40
57037;PMS5003;59942;49.304;8.256;2023-01-10T11:12:17;55.60;47.20;40.00
57037;PMS5003;59942;49.304;8.256;2023-01-10T11:14:47;44.20;43.00;37.20
57037;PMS5003;59942;49.304;8.256;2023-01-10T11:17:21;61.40;52.40;44.60
57037;PMS5003;59942;49.304;8.256;2023-01-10T11:22:52;42.40;40.00;34.80
57037;PMS5003;59942;49.304;8.256;2023-01-10T11:25:20;40.20;40.20;35.40
57037;PMS5003;59942;49.304;8.256;2023-01-10T11:27:49;36.80;36.20;33.20
57037;PMS5003;59942;49.304;8.256;2023-01-10T11:30:26;39.80;39.00;34.00
57037;PMS5003;59942;49.304;8.256;2023-01-10T11:32:58;38.80;38.80;34.00
57037;PMS5003;59942;49.304;8.256;2023-01-10T11:35:32;37.40;37.40;34.00
57037;PMS5003;59942;49.304;8.256;2023-01-10T11:38:08;42.20;39.00;34.00
57037;PMS5003;59942;49.304;8.256;2023-01-10T11:41:31;37.80;35.80;33.20
57037;PMS5003;59942;49.304;8.256;2023-01-10T11:43:44;46.20;45.40;38.20
57037;PMS5003;59942;49.304;8.256;2023-01-10T11:46:15;38.20;38.20;34.00
57037;PMS5003;59942;49.304;8.256;2023-01-10T11:49:07;40.80;40.80;35.80
57037;PMS5003;59942;49.304;8.256;2023-01-10T11:51:46;39.00;39.00;34.00
57037;PMS5003;59942;49.304;8.256;2023-01-10T11:54:18;40.40;38.20;34.00
57037;PMS5003;59942;49.304;8.256;2023-01-10T11:59:59;43.00;43.00;37.40
57037;PMS5003;59942;49.304;8.256;2023-01-10T12:02:35;39.80;39.00;34.00
57037;PMS5003;59942;49.304;8.256;2023-01-10T12:05:11;39.60;38.20;34.00
57037;PMS5003;59942;49.304;8.256;2023-01-10T12:08:02;49.20;47.20;40.60
57037;PMS5003;59942;49.304;8.256;2023-01-10T12:10:32;39.60;39.60;34.00
57037;PMS5003;59942;49.304;8.256;2023-01-10T12:13:13;33.40;33.00;31.00
57037;PMS5003;59942;49.304;8.256;2023-01-10T12:15:41;38.40;38.40;34.40
57037;PMS5003;59942;49.304;8.256;2023-01-10T12:18:08;37.40;37.40;34.00
57037;PMS5003;59942;49.304;8.256;2023-01-10T12:20:42;38.20;38.20;34.00
57037;PMS5003;59942;49.304;8.256;2023-01-10T12:23:16;42.40;41.80;36.40
57037;PMS5003;59942;49.304;8.256;2023-01-10T12:25:46;38.60;38.60;34.00
57037;PMS5003;59942;49.304;8.256;2023-01-10T12:28:17;39.80;38.60;34.00
57037;PMS5003;59942;49.304;8.256;2023-01-10T12:30:47;42.40;42.20;36.80
57037;PMS5003;59942;49.304;8.256;2023-01-10T12:33:18;36.00;34.00;33.00
57037;PMS5003;59942;49.304;8.256;2023-01-10T12:35:56;36.20;36.20;33.20
57037;PMS5003;59942;49.304;8.256;2023-01-10T12:38:37;39.80;39.80;35.60
57037;PMS5003;59942;49.304;8.256;2023-01-10T12:44:32;36.60;35.60;33.00
57037;PMS5003;59942;49.304;8.256;2023-01-10T12:47:04;41.00;39.20;34.40
57037;PMS5003;59942;49.304;8.256;2023-01-10T12:52:29;37.00;36.00;33.00
57037;PMS5003;59942;49.304;8.256;2023-01-10T12:55:12;40.40;38.20;34.00
57037;PMS5003;59942;49.304;8.256;2023-01-10T12:57:40;34.20;33.20;31.40
57037;PMS5003;59942;49.304;8.256;2023-01-10T13:00:20;39.40;38.40;34.40
57037;PMS5003;59942;49.304;8.256;2023-01-10T13:02:50;35.60;35.60;33.00
57037;PMS5003;59942;49.304;8.256;2023-01-10T13:05:21;39.00;39.00;34.00
57037;PMS5003;59942;49.304;8.256;2023-01-10T13:07:51;43.00;41.20;35.80
57037;PMS5003;59942;49.304;8.256;2023-01-10T13:10:25;37.00;37.00;34.00
57037;PMS5003;59942;49.304;8.256;2023-01-10T13:13:15;46.40;44.60;38.20
57037;PMS5003;59942;49.304;8.256;2023-01-10T13:18:57;46.80;44.20;38.20
57037;PMS5003;59942;49.304;8.256;2023-01-10T13:21:31;34.80;34.80;33.00
57037;PMS5003;59942;49.304;8.256;2023-01-10T13:24:21;36.20;33.00;31.00
57037;PMS5003;59942;49.304;8.256;2023-01-10T13:26:52;46.00;45.20;38.40
57037;PMS5003;59942;49.304;8.256;2023-01-10T13:29:22;36.40;36.40;33.40
57037;PMS5003;59942;49.304;8.256;2023-01-10T13:31:52;40.80;40.80;35.40
57037;PMS5003;59942;49.304;8.256;2023-01-10T13:34:26;42.00;42.00;36.80
57037;PMS5003;59942;49.304;8.256;2023-01-10T13:39:54;38.20;38.20;34.00
57037;PMS5003;59942;49.304;8.256;2023-01-10T13:45:15;37.80;37.80;34.00
57037;PMS5003;59942;49.304;8.256;2023-01-10T13:52:51;37.80;36.00;33.00
57037;PMS5003;59942;49.304;8.256;2023-01-10T13:55:21;40.00;40.00;34.80
57037;PMS5003;59942;49.304;8.256;2023-01-10T13:57:52;48.60;45.00;39.00
57037;PMS5003;59942;49.304;8.256;2023-01-10T14:00:24;49.00;46.00;39.20
57037;PMS5003;59942;49.304;8.256;2023-01-10T14:11:28;42.80;42.80;36.80
57037;PMS5003;59942;49.304;8.256;2023-01-10T14:14:01;43.80;41.60;36.00
57037;PMS5003;59942;49.304;8.256;2023-01-10T14:16:47;42.00;40.00;35.20
57037;PMS5003;59942;49.304;8.256;2023-01-10T14:19:21;43.00;40.00;36.00
57037;PMS5003;59942;49.304;8.256;2023-01-10T14:21:50;33.40;33.40;31.80
57037;PMS5003;59942;49.304;8.256;2023-01-10T14:24:54;35.20;35.20;33.00
57037;PMS5003;59942;49.304;8.256;2023-01-10T14:27:16;33.00;33.00;31.00
57037;PMS5003;59942;49.304;8.256;2023-01-10T14:29:50;39.20;39.20;34.00
57037;PMS5003;59942;49.304;8.256;2023-01-10T14:32:45;36.20;36.20;33.00
57037;PMS5003;59942;49.304;8.256;2023-01-10T14:35:17;40.00;40.00;35.20
57037;PMS5003;59942;49.304;8.256;2023-01-10T14:43:12;47.80;43.60;37.60
57037;PMS5003;59942;49.304;8.256;2023-01-10T14:48:32;48.80;46.60;39.60
57037;PMS5003;59942;49.304;8.256;2023-01-10T14:53:57;40.80;40.80;36.00
57037;PMS5003;59942;49.304;8.256;2023-01-10T14:56:35;41.40;41.40;36.00
57037;PMS5003;59942;49.304;8.256;2023-01-10T14:59:16;43.00;40.40;36.00
57037;PMS5003;59942;49.304;8.256;2023-01-10T15:01:48;40.60;39.00;34.00
57037;PMS5003;59942;49.304;8.256;2023-01-10T15:04:21;37.20;37.20;33.80
57037;PMS5003;59942;49.304;8.256;2023-01-10T15:09:20;44.60;44.60;37.00
57037;PMS5003;59942;49.304;8.256;2023-01-10T15:11:47;44.40;40.40;35.20
57037;PMS5003;59942;49.304;8.256;2023-01-10T15:14:16;50.80;48.00;41.20
57037;PMS5003;59942;49.304;8.256;2023-01-10T15:16:45;37.00;37.00;34.00
57037;PMS5003;59942;49.304;8.256;2023-01-10T15:19:14;59.80;52.20;43.60
57037;PMS5003;59942;49.304;8.256;2023-01-10T15:21:46;57.80;50.60;42.40
57037;PMS5003;59942;49.304;8.256;2023-01-10T15:24:23;63.00;52.80;41.80
57037;PMS5003;59942;49.304;8.256;2023-01-10T15:26:50;47.80;44.80;38.20
57037;PMS5003;59942;49.304;8.256;2023-01-10T15:29:22;61.00;49.00;39.80
57037;PMS5003;59942;49.304;8.256;2023-01-10T15:31:53;73.60;56.80;40.00
57037;PMS5003;59942;49.304;8.256;2023-01-10T15:34:33;87.00;65.80;45.40
57037;PMS5003;59942;49.304;8.256;2023-01-10T15:37:00;106.80;81.00;51.80
57037;PMS5003;59942;49.304;8.256;2023-01-10T15:39:29;140.80;110.40;67.40
57037;PMS5003;59942;49.304;8.256;2023-01-10T15:42:00;105.00;76.60;51.00
57037;PMS5003;59942;49.304;8.256;2023-01-10T15:47:29;63.00;54.40;41.60
57037;PMS5003;59942;49.304;8.256;2023-01-10T15:50:25;74.40;57.00;42.00
57037;PMS5003;59942;49.304;8.256;2023-01-10T15:52:54;57.00;47.80;39.20
57037;PMS5003;59942;49.304;8.256;2023-01-10T16:01:00;46.40;45.00;36.00
57037;PMS5003;59942;49.304;8.256;2023-01-10T16:03:33;73.80;61.00;44.40
57037;PMS5003;59942;49.304;8.256;2023-01-10T16:06:05;46.20;39.40;34.00
57037;PMS5003;59942;49.304;8.256;2023-01-10T16:08:37;61.20;49.60;38.20